createdAt,value
2022-12-24T00:09:40.764Z,99.90
2022-12-24T00:19:43.261Z,99.90
2022-12-24T00:29:44.926Z,99.90
2022-12-24T00:39:46.661Z,99.90
2022-12-24T01:06:10.238Z,98.80
2022-12-24T01:16:18.319Z,98.40
2022-12-24T01:26:20.007Z,98.00
2022-12-24T01:36:21.668Z,97.60
2022-12-24T01:46:23.284Z,97.30
2022-12-24T01:56:26.253Z,96.60
2022-12-24T02:06:27.909Z,96.20
2022-12-24T02:17:00.490Z,95.60
2022-12-24T02:27:17.261Z,95.90
2022-12-24T02:37:26.264Z,96.00
2022-12-24T02:47:31.005Z,96.10
2022-12-24T02:57:44.159Z,96.10
2022-12-24T03:08:03.603Z,96.20
2022-12-24T03:18:08.529Z,96.40
2022-12-24T03:28:14.865Z,96.50
2022-12-24T03:38:16.534Z,96.60
2022-12-24T03:48:18.201Z,96.70
2022-12-24T03:58:19.858Z,96.70
2022-12-24T04:08:21.512Z,96.70
2022-12-24T04:18:23.172Z,96.60
2022-12-24T04:28:24.823Z,96.70
2022-12-24T04:38:26.916Z,96.70
2022-12-24T04:48:28.571Z,97.00
2022-12-24T04:58:30.478Z,97.10
2022-12-24T05:08:32.337Z,97.10
2022-12-24T05:18:34.106Z,97.10
2022-12-24T05:28:35.859Z,97.30
2022-12-24T05:38:37.757Z,97.30
2022-12-24T05:48:39.430Z,97.30
2022-12-24T05:58:42.070Z,97.30
2022-12-24T06:08:43.744Z,97.40
2022-12-24T06:28:49.147Z,97.80
2022-12-24T06:38:51.801Z,98.00
2022-12-24T06:48:55.050Z,98.30
2022-12-24T06:59:00.202Z,98.50
2022-12-24T07:09:06.617Z,98.80
2022-12-24T07:19:08.282Z,99.10
2022-12-24T07:49:14.097Z,99.40
2022-12-24T07:59:15.822Z,99.40
2022-12-24T08:09:17.511Z,99.30
2022-12-24T08:19:19.393Z,99.30
2022-12-24T08:29:21.042Z,99.30
2022-12-24T08:49:24.812Z,99.20
2022-12-24T08:59:26.469Z,99.20
2022-12-24T09:09:32.728Z,99.20
2022-12-24T09:19:39.322Z,99.20
2022-12-24T09:29:40.949Z,99.10
2022-12-24T09:39:43.030Z,99.20
2022-12-24T09:49:49.642Z,99.10
2022-12-24T09:59:51.961Z,98.90
2022-12-24T10:10:25.656Z,98.80
2022-12-24T10:20:59.016Z,98.80
2022-12-24T10:31:05.590Z,98.80
2022-12-24T10:41:08.502Z,98.90
2022-12-24T10:51:21.308Z,99.00
2022-12-24T11:01:46.896Z,99.00
2022-12-24T11:11:49.349Z,99.00
2022-12-24T11:21:59.810Z,99.30
2022-12-24T11:32:18.627Z,99.80
2022-12-24T11:42:33.281Z,99.90
2022-12-24T11:52:35.615Z,99.90
2022-12-24T12:02:39.826Z,99.90
2022-12-24T12:12:45.598Z,99.70
2022-12-24T12:23:00.684Z,98.70
2022-12-24T12:33:51.658Z,97.90
2022-12-24T12:44:20.959Z,97.10
2022-12-24T12:54:34.542Z,96.70
2022-12-24T13:12:43.992Z,96.90
2022-12-24T13:22:56.203Z,97.00
2022-12-24T13:32:57.874Z,97.30
2022-12-24T13:42:59.578Z,97.90
2022-12-24T14:03:35.712Z,99.50
2022-12-24T14:13:40.512Z,99.80
2022-12-24T14:24:04.309Z,99.90
2022-12-24T14:34:13.188Z,99.90
2022-12-24T14:44:29.608Z,99.90
2022-12-24T14:54:41.919Z,99.90
2022-12-24T15:04:43.553Z,99.90
2022-12-24T15:14:45.939Z,99.90
2022-12-24T15:24:48.097Z,99.90
2022-12-24T15:34:55.070Z,99.90
2022-12-24T15:45:03.792Z,99.90
2022-12-24T15:55:05.801Z,99.90
2022-12-24T16:05:26.154Z,99.90
2022-12-24T16:15:27.961Z,99.90
2022-12-24T16:25:30.200Z,99.90
2022-12-24T16:35:33.483Z,99.90
2022-12-24T16:45:37.228Z,99.90
2022-12-24T16:55:38.912Z,99.90
2022-12-24T17:05:42.389Z,99.90
2022-12-24T17:15:44.026Z,99.90
2022-12-24T17:25:46.497Z,99.90
2022-12-24T17:35:49.209Z,99.90
2022-12-24T17:45:50.849Z,99.90
2022-12-24T17:55:52.478Z,99.90
2022-12-24T18:05:54.226Z,99.90
2022-12-24T18:26:02.482Z,99.90
2022-12-24T18:36:04.938Z,99.90
2022-12-24T18:46:08.594Z,99.90
2022-12-24T18:56:16.671Z,99.90
2022-12-24T19:06:19.366Z,99.90
2022-12-24T19:16:22.187Z,99.90
2022-12-24T19:36:29.070Z,99.90
2022-12-24T19:46:33.001Z,99.90
2022-12-24T19:56:35.298Z,99.90
2022-12-24T20:06:36.981Z,99.90
2022-12-24T20:16:38.804Z,99.90
2022-12-24T20:26:40.513Z,99.90
2022-12-24T20:36:42.639Z,99.90
2022-12-24T20:46:44.337Z,99.90
2022-12-24T20:56:45.941Z,99.90
2022-12-24T21:06:59.683Z,99.90
2022-12-24T21:17:01.433Z,99.90
2022-12-24T21:27:03.164Z,99.90
2022-12-24T21:37:04.895Z,99.90
2022-12-24T21:47:07.873Z,99.90
2022-12-24T22:07:49.180Z,99.90
2022-12-24T22:17:50.855Z,99.90
2022-12-24T22:27:52.498Z,99.90
2022-12-24T22:37:59.630Z,99.90
2022-12-24T22:48:01.895Z,99.90
2022-12-24T23:08:07.303Z,99.90
2022-12-24T23:18:09.495Z,99.90
2022-12-24T23:28:11.205Z,99.90
2022-12-24T23:38:12.824Z,99.90
2022-12-24T23:48:15.579Z,99.90
2022-12-24T23:58:17.212Z,99.90
